sensor_id;sensor_type;location;lat;lon;timestamp;pressure;altitude;pressure_sealevel;temperature;humidity
80410;BME280;69746;45.596;10.154;2023-05-07T00:01:04;99486.91;;;21.42;55.68
80410;BME280;69746;45.596;10.154;2023-05-07T00:03:32;99492.94;;;21.44;55.85
80410;BME280;69746;45.596;10.154;2023-05-07T00:05:58;99490.50;;;21.42;55.93
80410;BME280;69746;45.596;10.154;2023-05-07T00:08:25;99492.13;;;21.43;55.76
80410;BME280;69746;45.596;10.154;2023-05-07T00:10:51;99484.94;;;21.42;55.76
80410;BME280;69746;45.596;10.154;2023-05-07T00:13:23;99495.72;;;21.44;55.68
80410;BME280;69746;45.596;10.154;2023-05-07T00:15:51;99496.53;;;21.44;55.92
80410;BME280;69746;45.596;10.154;2023-05-07T00:18:18;99482.16;;;21.42;55.79
80410;BME280;69746;45.596;10.154;2023-05-07T00:20:47;99493.28;;;21.42;55.83
80410;BME280;69746;45.596;10.154;2023-05-07T00:23:15;99492.44;;;21.42;55.90
80410;BME280;69746;45.596;10.154;2023-05-07T00:25:42;99487.41;;;21.44;55.79
80410;BME280;69746;45.596;10.154;2023-05-07T00:28:08;99496.88;;;21.43;55.79
80410;BME280;69746;45.596;10.154;2023-05-07T00:30:33;99491.00;;;21.44;55.70
80410;BME280;69746;45.596;10.154;2023-05-07T00:32:59;99492.13;;;21.43;55.76
80410;BME280;69746;45.596;10.154;2023-05-07T00:35:28;99490.19;;;21.44;55.71
80410;BME280;69746;45.596;10.154;2023-05-07T00:37:54;99488.53;;;21.43;55.76
80410;BME280;69746;45.596;10.154;2023-05-07T00:40:21;99495.72;;;21.44;55.67
80410;BME280;69746;45.596;10.154;2023-05-07T00:42:50;99495.72;;;21.44;55.80
80410;BME280;69746;45.596;10.154;2023-05-07T00:45:25;99499.31;;;21.44;55.77
80410;BME280;69746;45.596;10.154;2023-05-07T00:47:59;99506.81;;;21.44;55.79
80410;BME280;69746;45.596;10.154;2023-05-07T00:50:26;99499.31;;;21.44;55.80
80410;BME280;69746;45.596;10.154;2023-05-07T00:52:54;99508.78;;;21.43;55.77
80410;BME280;69746;45.596;10.154;2023-05-07T00:55:22;99512.38;;;21.44;55.87
80410;BME280;69746;45.596;10.154;2023-05-07T00:57:49;99515.16;;;21.44;55.94
80410;BME280;69746;45.596;10.154;2023-05-07T01:00:15;99520.69;;;21.44;55.67
80410;BME280;69746;45.596;10.154;2023-05-07T01:02:48;99517.09;;;21.43;55.81
80410;BME280;69746;45.596;10.154;2023-05-07T01:05:17;99516.28;;;21.43;55.70
80410;BME280;69746;45.596;10.154;2023-05-07T01:07:47;99527.88;;;21.45;55.79
80410;BME280;69746;45.596;10.154;2023-05-07T01:10:15;99518.75;;;21.44;55.89
80410;BME280;69746;45.596;10.154;2023-05-07T01:12:44;99522.34;;;21.45;55.84
80410;BME280;69746;45.596;10.154;2023-05-07T01:15:11;99515.47;;;21.42;55.87
80410;BME280;69746;45.596;10.154;2023-05-07T01:17:40;99522.34;;;21.45;55.88
80410;BME280;69746;45.596;10.154;2023-05-07T01:20:07;99515.97;;;21.44;55.86
80410;BME280;69746;45.596;10.154;2023-05-07T01:22:35;99514.00;;;21.45;55.86
80410;BME280;69746;45.596;10.154;2023-05-07T01:25:04;99515.97;;;21.44;55.68
80410;BME280;69746;45.596;10.154;2023-05-07T01:27:30;99515.97;;;21.44;55.83
80410;BME280;69746;45.596;10.154;2023-05-07T01:29:56;99515.97;;;21.44;55.79
80410;BME280;69746;45.596;10.154;2023-05-07T01:32:33;99525.13;;;21.45;55.70
80410;BME280;69746;45.596;10.154;2023-05-07T01:35:05;99536.22;;;21.45;55.86
80410;BME280;69746;45.596;10.154;2023-05-07T01:37:33;99534.56;;;21.44;55.76
80410;BME280;69746;45.596;10.154;2023-05-07T01:40:01;99541.25;;;21.43;55.86
80410;BME280;69746;45.596;10.154;2023-05-07T01:42:29;99521.53;;;21.44;55.85
80410;BME280;69746;45.596;10.154;2023-05-07T01:44:55;99520.69;;;21.44;55.69
80410;BME280;69746;45.596;10.154;2023-05-07T01:47:22;99522.34;;;21.45;55.71
80410;BME280;69746;45.596;10.154;2023-05-07T01:49:50;99515.97;;;21.44;55.85
80410;BME280;69746;45.596;10.154;2023-05-07T01:52:16;99515.66;;;21.46;55.70
80410;BME280;69746;45.596;10.154;2023-05-07T01:54:42;99505.69;;;21.45;55.85
80410;BME280;69746;45.596;10.154;2023-05-07T01:57:09;99510.09;;;21.46;55.78
80410;BME280;69746;45.596;10.154;2023-05-07T01:59:36;99507.31;;;21.46;55.77
80410;BME280;69746;45.596;10.154;2023-05-07T02:02:02;99510.09;;;21.46;55.68
80410;BME280;69746;45.596;10.154;2023-05-07T02:04:28;99502.09;;;21.44;55.70
80410;BME280;69746;45.596;10.154;2023-05-07T02:06:55;99503.72;;;21.45;55.86
80410;BME280;69746;45.596;10.154;2023-05-07T02:09:21;99506.50;;;21.45;55.77
80410;BME280;69746;45.596;10.154;2023-05-07T02:11:48;99489.84;;;21.45;55.69
80410;BME280;69746;45.596;10.154;2023-05-07T02:14:14;99495.41;;;21.45;55.58
80410;BME280;69746;45.596;10.154;2023-05-07T02:16:41;99497.03;;;21.46;55.73
80410;BME280;69746;45.596;10.154;2023-05-07T02:19:07;99490.69;;;21.46;55.54
80410;BME280;69746;45.596;10.154;2023-05-07T02:21:36;99485.94;;;21.46;55.78
80410;BME280;69746;45.596;10.154;2023-05-07T02:24:02;99481.53;;;21.45;55.80
80410;BME280;69746;45.596;10.154;2023-05-07T02:26:27;99491.81;;;21.45;55.59
80410;BME280;69746;45.596;10.154;2023-05-07T02:28:56;99493.78;;;21.44;55.74
80410;BME280;69746;45.596;10.154;2023-05-07T02:31:23;99495.09;;;21.47;55.71
80410;BME280;69746;45.596;10.154;2023-05-07T02:33:48;99485.94;;;21.46;55.82
80410;BME280;69746;45.596;10.154;2023-05-07T02:36:15;99489.03;;;21.45;55.79
80410;BME280;69746;45.596;10.154;2023-05-07T02:38:43;99483.16;;;21.46;55.69
80410;BME280;69746;45.596;10.154;2023-05-07T02:41:09;99494.28;;;21.46;55.64
80410;BME280;69746;45.596;10.154;2023-05-07T02:43:35;99491.50;;;21.46;55.80
80410;BME280;69746;45.596;10.154;2023-05-07T02:46:04;99493.44;;;21.46;55.76
80410;BME280;69746;45.596;10.154;2023-05-07T02:48:32;99501.78;;;21.46;55.64
80410;BME280;69746;45.596;10.154;2023-05-07T02:50:58;99500.63;;;21.47;55.61
80410;BME280;69746;45.596;10.154;2023-05-07T02:53:25;99493.44;;;21.46;55.73
80410;BME280;69746;45.596;10.154;2023-05-07T02:56:00;99492.31;;;21.47;55.71
80410;BME280;69746;45.596;10.154;2023-05-07T02:58:27;99495.41;;;21.45;55.63
80410;BME280;69746;45.596;10.154;2023-05-07T03:00:53;99502.59;;;21.46;55.71
80410;BME280;69746;45.596;10.154;2023-05-07T03:03:21;99497.88;;;21.47;55.86
80410;BME280;69746;45.596;10.154;2023-05-07T03:05:47;99494.28;;;21.46;55.72
80410;BME280;69746;45.596;10.154;2023-05-07T03:08:13;99488.72;;;21.46;55.68
80410;BME280;69746;45.596;10.154;2023-05-07T03:10:39;99482.03;;;21.47;55.81
80410;BME280;69746;45.596;10.154;2023-05-07T03:13:08;99474.84;;;21.46;55.62
80410;BME280;69746;45.596;10.154;2023-05-07T03:15:34;99472.06;;;21.46;55.65
80410;BME280;69746;45.596;10.154;2023-05-07T03:18:01;99465.38;;;21.47;55.65
80410;BME280;69746;45.596;10.154;2023-05-07T03:20:27;99459.66;;;21.44;55.86
80410;BME280;69746;45.596;10.154;2023-05-07T03:22:53;99460.66;;;21.48;55.53
80410;BME280;69746;45.596;10.154;2023-05-07T03:25:19;99454.28;;;21.47;55.67
80410;BME280;69746;45.596;10.154;2023-05-07T03:27:45;99457.06;;;21.47;55.72
80410;BME280;69746;45.596;10.154;2023-05-07T03:30:11;99457.06;;;21.47;55.84
80410;BME280;69746;45.596;10.154;2023-05-07T03:32:38;99468.97;;;21.48;55.71
80410;BME280;69746;45.596;10.154;2023-05-07T03:35:04;99468.97;;;21.48;55.77
80410;BME280;69746;45.596;10.154;2023-05-07T03:37:31;99468.16;;;21.47;55.74
80410;BME280;69746;45.596;10.154;2023-05-07T03:39:57;99471.75;;;21.48;55.70
80410;BME280;69746;45.596;10.154;2023-05-07T03:42:23;99469.81;;;21.48;55.70
80410;BME280;69746;45.596;10.154;2023-05-07T03:44:49;99468.16;;;21.47;55.62
80410;BME280;69746;45.596;10.154;2023-05-07T03:47:15;99467.06;;;21.48;55.57
80410;BME280;69746;45.596;10.154;2023-05-07T03:49:43;99467.06;;;21.48;55.58
80410;BME280;69746;45.596;10.154;2023-05-07T03:52:09;99468.97;;;21.48;55.67
80410;BME280;69746;45.596;10.154;2023-05-07T03:54:35;99476.19;;;21.49;55.58
80410;BME280;69746;45.596;10.154;2023-05-07T03:57:02;99482.84;;;21.48;55.72
80410;BME280;69746;45.596;10.154;2023-05-07T03:59:28;99478.16;;;21.48;55.66
80410;BME280;69746;45.596;10.154;2023-05-07T04:01:55;99476.19;;;21.49;55.72
80410;BME280;69746;45.596;10.154;2023-05-07T04:04:21;99476.19;;;21.49;55.73
80410;BME280;69746;45.596;10.154;2023-05-07T04:06:46;99480.94;;;21.48;55.65
80410;BME280;69746;45.596;10.154;2023-05-07T04:09:13;99488.41;;;21.48;55.68
80410;BME280;69746;45.596;10.154;2023-05-07T04:11:39;99484.81;;;21.47;55.57
80410;BME280;69746;45.596;10.154;2023-05-07T04:14:06;99483.72;;;21.48;55.55
80410;BME280;69746;45.596;10.154;2023-05-07T04:16:34;99481.75;;;21.49;55.54
80410;BME280;69746;45.596;10.154;2023-05-07T04:19:00;99490.06;;;21.49;55.64
80410;BME280;69746;45.596;10.154;2023-05-07T04:21:26;99490.06;;;21.49;55.62
80410;BME280;69746;45.596;10.154;2023-05-07T04:23:56;99490.91;;;21.49;55.66
80410;BME280;69746;45.596;10.154;2023-05-07T04:26:22;99481.75;;;21.49;55.69
80410;BME280;69746;45.596;10.154;2023-05-07T04:28:49;99485.34;;;21.49;55.76
80410;BME280;69746;45.596;10.154;2023-05-07T04:31:14;99468.69;;;21.49;55.58
80410;BME280;69746;45.596;10.154;2023-05-07T04:33:43;99482.56;;;21.49;55.61
80410;BME280;69746;45.596;10.154;2023-05-07T04:36:09;99479.78;;;21.49;55.50
80410;BME280;69746;45.596;10.154;2023-05-07T04:38:34;99481.75;;;21.49;55.55
80410;BME280;69746;45.596;10.154;2023-05-07T04:41:04;99497.25;;;21.50;55.71
80410;BME280;69746;45.596;10.154;2023-05-07T04:43:30;99495.63;;;21.49;55.72
80410;BME280;69746;45.596;10.154;2023-05-07T04:45:56;99502.00;;;21.49;55.65
80410;BME280;69746;45.596;10.154;2023-05-07T04:48:23;99500.03;;;21.50;55.61
80410;BME280;69746;45.596;10.154;2023-05-07T04:50:50;99507.53;;;21.49;55.59
80410;BME280;69746;45.596;10.154;2023-05-07T04:53:19;99520.28;;;21.51;55.59
80410;BME280;69746;45.596;10.154;2023-05-07T04:55:45;99517.50;;;21.51;55.55
80410;BME280;69746;45.596;10.154;2023-05-07T04:58:12;99516.69;;;21.50;55.51
80410;BME280;69746;45.596;10.154;2023-05-07T05:00:39;99517.81;;;21.49;55.69
80410;BME280;69746;45.596;10.154;2023-05-07T05:03:06;99523.06;;;21.51;55.58
80410;BME280;69746;45.596;10.154;2023-05-07T05:05:34;99519.47;;;21.50;55.74
80410;BME280;69746;45.596;10.154;2023-05-07T05:08:00;99526.16;;;21.49;55.76
80410;BME280;69746;45.596;10.154;2023-05-07T05:10:26;99529.75;;;21.49;55.63
80410;BME280;69746;45.596;10.154;2023-05-07T05:12:52;99527.78;;;21.50;55.63
80410;BME280;69746;45.596;10.154;2023-05-07T05:15:18;99530.56;;;21.50;55.61
80410;BME280;69746;45.596;10.154;2023-05-07T05:17:44;99533.34;;;21.50;55.69
80410;BME280;69746;45.596;10.154;2023-05-07T05:20:10;99528.94;;;21.49;55.71
80410;BME280;69746;45.596;10.154;2023-05-07T05:22:37;99534.16;;;21.51;55.63
80410;BME280;69746;45.596;10.154;2023-05-07T05:25:05;99527.78;;;21.50;55.74
80410;BME280;69746;45.596;10.154;2023-05-07T05:27:31;99530.25;;;21.52;55.58
80410;BME280;69746;45.596;10.154;2023-05-07T05:29:57;99526.34;;;21.53;55.61
80410;BME280;69746;45.596;10.154;2023-05-07T05:32:23;99528.59;;;21.51;55.68
80410;BME280;69746;45.596;10.154;2023-05-07T05:34:49;99529.13;;;21.53;55.63
80410;BME280;69746;45.596;10.154;2023-05-07T05:37:15;99526.66;;;21.51;55.58
80410;BME280;69746;45.596;10.154;2023-05-07T05:39:41;99531.06;;;21.52;55.65
80410;BME280;69746;45.596;10.154;2023-05-07T05:42:08;99529.13;;;21.53;55.59
80410;BME280;69746;45.596;10.154;2023-05-07T05:44:33;99531.88;;;21.53;55.66
80410;BME280;69746;45.596;10.154;2023-05-07T05:47:00;99536.63;;;21.52;55.60
80410;BME280;69746;45.596;10.154;2023-05-07T05:49:26;99538.25;;;21.53;55.62
80410;BME280;69746;45.596;10.154;2023-05-07T05:51:51;99531.88;;;21.53;55.62
80410;BME280;69746;45.596;10.154;2023-05-07T05:54:19;99529.13;;;21.53;55.52
80410;BME280;69746;45.596;10.154;2023-05-07T05:56:45;99525.50;;;21.52;55.59
80410;BME280;69746;45.596;10.154;2023-05-07T05:59:11;99538.25;;;21.53;55.47
80410;BME280;69746;45.596;10.154;2023-05-07T06:01:38;99519.97;;;21.52;55.39
80410;BME280;69746;45.596;10.154;2023-05-07T06:04:04;99524.38;;;21.53;55.67
80410;BME280;69746;45.596;10.154;2023-05-07T06:06:30;99518.81;;;21.53;55.56
80410;BME280;69746;45.596;10.154;2023-05-07T06:08:57;99524.38;;;21.53;55.30
80410;BME280;69746;45.596;10.154;2023-05-07T06:11:24;99512.47;;;21.53;55.37
80410;BME280;69746;45.596;10.154;2023-05-07T06:13:50;99523.56;;;21.53;55.50
80410;BME280;69746;45.596;10.154;2023-05-07T06:16:17;99519.66;;;21.54;55.48
80410;BME280;69746;45.596;10.154;2023-05-07T06:18:44;99532.72;;;21.53;55.48
80410;BME280;69746;45.596;10.154;2023-05-07T06:21:13;99533.53;;;21.54;55.37
80410;BME280;69746;45.596;10.154;2023-05-07T06:23:40;99525.19;;;21.54;55.50
80410;BME280;69746;45.596;10.154;2023-05-07T06:26:07;99525.19;;;21.54;55.56
80410;BME280;69746;45.596;10.154;2023-05-07T06:28:33;99514.09;;;21.54;55.56
80410;BME280;69746;45.596;10.154;2023-05-07T06:31:13;99509.38;;;21.54;55.40
80410;BME280;69746;45.596;10.154;2023-05-07T06:33:40;99508.53;;;21.54;55.58
80410;BME280;69746;45.596;10.154;2023-05-07T06:36:09;99499.91;;;21.55;55.54
80410;BME280;69746;45.596;10.154;2023-05-07T06:38:35;99498.25;;;21.54;55.50
80410;BME280;69746;45.596;10.154;2023-05-07T06:41:07;99494.66;;;21.54;55.58
80410;BME280;69746;45.596;10.154;2023-05-07T06:43:35;99499.09;;;21.55;55.31
80410;BME280;69746;45.596;10.154;2023-05-07T06:46:01;99507.41;;;21.55;55.38
80410;BME280;69746;45.596;10.154;2023-05-07T06:48:28;99511.31;;;21.54;55.42
80410;BME280;69746;45.596;10.154;2023-05-07T06:50:54;99502.19;;;21.53;55.52
80410;BME280;69746;45.596;10.154;2023-05-07T06:53:21;99495.50;;;21.54;55.50
80410;BME280;69746;45.596;10.154;2023-05-07T06:55:47;99492.72;;;21.54;55.26
80410;BME280;69746;45.596;10.154;2023-05-07T06:58:13;99504.63;;;21.55;55.56
80410;BME280;69746;45.596;10.154;2023-05-07T07:00:39;99511.00;;;21.55;55.44
80410;BME280;69746;45.596;10.154;2023-05-07T07:03:06;99502.19;;;21.53;55.32
80410;BME280;69746;45.596;10.154;2023-05-07T07:05:32;99505.78;;;21.54;55.49
80410;BME280;69746;45.596;10.154;2023-05-07T07:07:58;99502.69;;;21.55;55.33
80410;BME280;69746;45.596;10.154;2023-05-07T07:10:25;99504.63;;;21.55;55.53
80410;BME280;69746;45.596;10.154;2023-05-07T07:12:51;99512.97;;;21.55;55.67
80410;BME280;69746;45.596;10.154;2023-05-07T07:15:19;99510.19;;;21.55;55.45
80410;BME280;69746;45.596;10.154;2023-05-07T07:17:46;99516.56;;;21.55;55.46
80410;BME280;69746;45.596;10.154;2023-05-07T07:20:12;99518.50;;;21.55;55.44
80410;BME280;69746;45.596;10.154;2023-05-07T07:22:38;99512.78;;;21.51;55.39
80410;BME280;69746;45.596;10.154;2023-05-07T07:25:05;99515.75;;;21.55;55.45
80410;BME280;69746;45.596;10.154;2023-05-07T07:27:30;99515.75;;;21.55;55.31
80410;BME280;69746;45.596;10.154;2023-05-07T07:29:59;99523.25;;;21.54;55.56
80410;BME280;69746;45.596;10.154;2023-05-07T07:32:25;99526.03;;;21.54;55.56
80410;BME280;69746;45.596;10.154;2023-05-07T07:34:51;99524.88;;;21.55;55.80
80410;BME280;69746;45.596;10.154;2023-05-07T07:37:17;99521.28;;;21.55;55.71
80410;BME280;69746;45.596;10.154;2023-05-07T07:39:43;99525.69;;;21.56;55.59
80410;BME280;69746;45.596;10.154;2023-05-07T07:42:09;99520.97;;;21.56;55.55
80410;BME280;69746;45.596;10.154;2023-05-07T07:44:35;99525.69;;;21.56;55.55
80410;BME280;69746;45.596;10.154;2023-05-07T07:47:00;99523.44;;;21.58;55.61
80410;BME280;69746;45.596;10.154;2023-05-07T07:49:27;99519.00;;;21.57;55.71
80410;BME280;69746;45.596;10.154;2023-05-07T07:51:53;99527.34;;;21.57;55.57
80410;BME280;69746;45.596;10.154;2023-05-07T07:54:20;99523.75;;;21.56;55.55
80410;BME280;69746;45.596;10.154;2023-05-07T07:56:46;99530.94;;;21.57;55.72
80410;BME280;69746;45.596;10.154;2023-05-07T07:59:11;99533.72;;;21.57;55.48
80410;BME280;69746;45.596;10.154;2023-05-07T08:01:39;99530.94;;;21.57;55.51
80410;BME280;69746;45.596;10.154;2023-05-07T08:04:05;99530.13;;;21.57;55.62
80410;BME280;69746;45.596;10.154;2023-05-07T08:06:31;99537.00;;;21.59;55.50
80410;BME280;69746;45.596;10.154;2023-05-07T08:08:57;99540.09;;;21.58;55.52
80410;BME280;69746;45.596;10.154;2023-05-07T08:11:23;99536.16;;;21.59;55.55
80410;BME280;69746;45.596;10.154;2023-05-07T08:13:49;99545.63;;;21.58;55.46
80410;BME280;69746;45.596;10.154;2023-05-07T08:16:15;99546.44;;;21.58;55.41
80410;BME280;69746;45.596;10.154;2023-05-07T08:18:41;99552.81;;;21.59;55.52
80410;BME280;69746;45.596;10.154;2023-05-07T08:21:07;99542.03;;;21.57;55.58
80410;BME280;69746;45.596;10.154;2023-05-07T08:23:33;99547.28;;;21.59;55.46
80410;BME280;69746;45.596;10.154;2023-05-07T08:26:00;99555.59;;;21.59;55.50
80410;BME280;69746;45.596;10.154;2023-05-07T08:28:26;99552.00;;;21.58;55.52
80410;BME280;69746;45.596;10.154;2023-05-07T08:30:53;99557.56;;;21.58;55.55
80410;BME280;69746;45.596;10.154;2023-05-07T08:33:22;99556.41;;;21.59;55.52
80410;BME280;69746;45.596;10.154;2023-05-07T08:35:54;99558.38;;;21.59;55.54
80410;BME280;69746;45.596;10.154;2023-05-07T08:38:20;99555.59;;;21.59;55.61
80410;BME280;69746;45.596;10.154;2023-05-07T08:40:49;99559.19;;;21.59;55.58
80410;BME280;69746;45.596;10.154;2023-05-07T08:43:18;99562.28;;;21.58;55.60
80410;BME280;69746;45.596;10.154;2023-05-07T08:45:49;99552.31;;;21.57;55.55
80410;BME280;69746;45.596;10.154;2023-05-07T08:48:19;99555.91;;;21.57;55.45
80410;BME280;69746;45.596;10.154;2023-05-07T08:50:47;99561.78;;;21.56;55.53
80410;BME280;69746;45.596;10.154;2023-05-07T08:53:14;99564.25;;;21.57;55.76
80410;BME280;69746;45.596;10.154;2023-05-07T08:55:45;99558.69;;;21.57;55.48
80410;BME280;69746;45.596;10.154;2023-05-07T08:58:11;99555.09;;;21.57;55.54
80410;BME280;69746;45.596;10.154;2023-05-07T09:00:39;99565.06;;;21.58;55.66
80410;BME280;69746;45.596;10.154;2023-05-07T09:03:08;99562.28;;;21.58;55.61
80410;BME280;69746;45.596;10.154;2023-05-07T09:05:38;99556.22;;;21.56;55.63
80410;BME280;69746;45.596;10.154;2023-05-07T09:08:06;99562.28;;;21.58;55.54
80410;BME280;69746;45.596;10.154;2023-05-07T09:10:33;99553.13;;;21.57;55.60
80410;BME280;69746;45.596;10.154;2023-05-07T09:13:00;99559.50;;;21.58;55.57
80410;BME280;69746;45.596;10.154;2023-05-07T09:15:27;99552.00;;;21.58;55.69
80410;BME280;69746;45.596;10.154;2023-05-07T09:17:54;99561.47;;;21.57;55.76
80410;BME280;69746;45.596;10.154;2023-05-07T09:20:20;99558.19;;;21.55;55.64
80410;BME280;69746;45.596;10.154;2023-05-07T09:22:47;99560.66;;;21.57;55.56
80410;BME280;69746;45.596;10.154;2023-05-07T09:25:14;99561.47;;;21.57;55.82
80410;BME280;69746;45.596;10.154;2023-05-07T09:27:41;99560.00;;;21.60;55.77
80410;BME280;69746;45.596;10.154;2023-05-07T09:30:08;99563.94;;;21.59;55.64
80410;BME280;69746;45.596;10.154;2023-05-07T09:32:37;99555.59;;;21.59;55.49
80410;BME280;69746;45.596;10.154;2023-05-07T09:35:04;99560.31;;;21.58;55.69
80410;BME280;69746;45.596;10.154;2023-05-07T09:37:31;99550.06;;;21.59;55.75
80410;BME280;69746;45.596;10.154;2023-05-07T09:39:58;99550.88;;;21.59;55.62
80410;BME280;69746;45.596;10.154;2023-05-07T09:42:24;99546.44;;;21.58;55.69
80410;BME280;69746;45.596;10.154;2023-05-07T09:44:53;99548.09;;;21.59;55.61
80410;BME280;69746;45.596;10.154;2023-05-07T09:47:20;99555.28;;;21.60;55.51
80410;BME280;69746;45.596;10.154;2023-05-07T09:49:50;99551.69;;;21.60;55.58
80410;BME280;69746;45.596;10.154;2023-05-07T09:52:24;99548.72;;;21.56;55.53
80410;BME280;69746;45.596;10.154;2023-05-07T09:54:54;99552.81;;;21.59;55.73
80410;BME280;69746;45.596;10.154;2023-05-07T09:57:25;99550.06;;;21.59;55.55
80410;BME280;69746;45.596;10.154;2023-05-07T09:59:53;99552.50;;;21.60;55.57
80410;BME280;69746;45.596;10.154;2023-05-07T10:02:21;99550.56;;;21.61;55.68
80410;BME280;69746;45.596;10.154;2023-05-07T10:04:51;99549.72;;;21.60;55.43
80410;BME280;69746;45.596;10.154;2023-05-07T10:07:19;99548.59;;;21.61;55.38
80410;BME280;69746;45.596;10.154;2023-05-07T10:09:45;99545.00;;;21.61;55.67
80410;BME280;69746;45.596;10.154;2023-05-07T10:12:14;99551.38;;;21.61;55.40
80410;BME280;69746;45.596;10.154;2023-05-07T10:14:43;99541.41;;;21.60;55.54
80410;BME280;69746;45.596;10.154;2023-05-07T10:17:11;99541.72;;;21.59;55.48
80410;BME280;69746;45.596;10.154;2023-05-07T10:19:38;99541.41;;;21.60;55.52
80410;BME280;69746;45.596;10.154;2023-05-07T10:22:05;99538.94;;;21.59;55.62
80410;BME280;69746;45.596;10.154;2023-05-07T10:24:33;99541.41;;;21.60;55.64
80410;BME280;69746;45.596;10.154;2023-05-07T10:26:59;99532.25;;;21.60;55.60
80410;BME280;69746;45.596;10.154;2023-05-07T10:29:42;99535.84;;;21.60;55.75
80410;BME280;69746;45.596;10.154;2023-05-07T10:32:33;99531.13;;;21.61;55.71
80410;BME280;69746;45.596;10.154;2023-05-07T10:35:04;99524.75;;;21.60;55.71
80410;BME280;69746;45.596;10.154;2023-05-07T10:37:32;99522.28;;;21.59;55.67
80410;BME280;69746;45.596;10.154;2023-05-07T10:39:59;99518.38;;;21.60;55.71
80410;BME280;69746;45.596;10.154;2023-05-07T10:42:26;99519.19;;;21.60;55.58
80410;BME280;69746;45.596;10.154;2023-05-07T10:44:52;99520.84;;;21.61;55.63
80410;BME280;69746;45.596;10.154;2023-05-07T10:47:18;99515.28;;;21.61;55.69
80410;BME280;69746;45.596;10.154;2023-05-07T10:55:47;99518.91;;;21.62;55.63
80410;BME280;69746;45.596;10.154;2023-05-07T10:58:24;99510.59;;;21.62;55.81
80410;BME280;69746;45.596;10.154;2023-05-07T11:00:57;99505.84;;;21.62;55.69
80410;BME280;69746;45.596;10.154;2023-05-07T11:03:25;99509.44;;;21.63;55.76
80410;BME280;69746;45.596;10.154;2023-05-07T11:06:14;99510.25;;;21.63;55.55
80410;BME280;69746;45.596;10.154;2023-05-07T11:08:52;99510.25;;;21.63;55.56
80410;BME280;69746;45.596;10.154;2023-05-07T11:11:19;99515.00;;;21.63;55.66
80410;BME280;69746;45.596;10.154;2023-05-07T11:13:48;99511.09;;;21.64;55.61
80410;BME280;69746;45.596;10.154;2023-05-07T11:16:22;99509.94;;;21.65;55.54
80410;BME280;69746;45.596;10.154;2023-05-07T11:18:53;99505.53;;;21.64;55.57
80410;BME280;69746;45.596;10.154;2023-05-07T11:21:34;99504.41;;;21.65;55.55
80410;BME280;69746;45.596;10.154;2023-05-07T11:24:01;99509.13;;;21.64;55.60
80410;BME280;69746;45.596;10.154;2023-05-07T11:26:43;99504.41;;;21.65;55.57
80410;BME280;69746;45.596;10.154;2023-05-07T11:29:13;99503.56;;;21.64;55.54
80410;BME280;69746;45.596;10.154;2023-05-07T11:31:41;99509.13;;;21.64;55.58
80410;BME280;69746;45.596;10.154;2023-05-07T11:34:08;99498.84;;;21.65;55.59
80410;BME280;69746;45.596;10.154;2023-05-07T11:36:40;99501.94;;;21.63;55.46
80410;BME280;69746;45.596;10.154;2023-05-07T11:39:24;99495.25;;;21.64;55.47
80410;BME280;69746;45.596;10.154;2023-05-07T11:41:51;99499.66;;;21.65;55.61
80410;BME280;69746;45.596;10.154;2023-05-07T11:44:17;99500.47;;;21.66;55.63
80410;BME280;69746;45.596;10.154;2023-05-07T11:46:44;99494.94;;;21.66;55.47
80410;BME280;69746;45.596;10.154;2023-05-07T11:49:11;99486.91;;;21.64;55.58
80410;BME280;69746;45.596;10.154;2023-05-07T11:51:38;99498.53;;;21.66;55.50
80410;BME280;69746;45.596;10.154;2023-05-07T11:54:06;99492.16;;;21.66;55.47
80410;BME280;69746;45.596;10.154;2023-05-07T11:56:37;99491.84;;;21.67;55.71
80410;BME280;69746;45.596;10.154;2023-05-07T11:59:04;99498.22;;;21.68;55.38
80410;BME280;69746;45.596;10.154;2023-05-07T12:01:31;99491.34;;;21.65;55.58
80410;BME280;69746;45.596;10.154;2023-05-07T12:03:58;99492.66;;;21.68;55.69
80410;BME280;69746;45.596;10.154;2023-05-07T12:06:26;99494.59;;;21.67;55.61
80410;BME280;69746;45.596;10.154;2023-05-07T12:08:53;99493.47;;;21.68;55.63
80410;BME280;69746;45.596;10.154;2023-05-07T12:11:24;99496.25;;;21.68;55.45
80410;BME280;69746;45.596;10.154;2023-05-07T12:13:51;99497.06;;;21.69;55.61
80410;BME280;69746;45.596;10.154;2023-05-07T12:16:18;99492.66;;;21.68;55.55
80410;BME280;69746;45.596;10.154;2023-05-07T12:18:45;99487.09;;;21.68;55.69
80410;BME280;69746;45.596;10.154;2023-05-07T12:21:14;99487.91;;;21.68;55.49
80410;BME280;69746;45.596;10.154;2023-05-07T12:23:42;99485.97;;;21.69;55.40
80410;BME280;69746;45.596;10.154;2023-05-07T12:26:09;99485.97;;;21.69;55.42
80410;BME280;69746;45.596;10.154;2023-05-07T12:28:38;99483.19;;;21.69;55.53
80410;BME280;69746;45.596;10.154;2023-05-07T12:31:05;99478.78;;;21.68;55.54
80410;BME280;69746;45.596;10.154;2023-05-07T12:33:31;99482.06;;;21.70;55.57
80410;BME280;69746;45.596;10.154;2023-05-07T12:35:58;99486.78;;;21.69;55.66
80410;BME280;69746;45.596;10.154;2023-05-07T12:38:24;99484.00;;;21.69;55.43
80410;BME280;69746;45.596;10.154;2023-05-07T12:40:54;99484.81;;;21.70;55.43
80410;BME280;69746;45.596;10.154;2023-05-07T12:43:24;99482.06;;;21.70;55.39
80410;BME280;69746;45.596;10.154;2023-05-07T12:45:52;99478.47;;;21.69;55.41
80410;BME280;69746;45.596;10.154;2023-05-07T12:48:25;99482.88;;;21.70;55.51
80410;BME280;69746;45.596;10.154;2023-05-07T12:50:57;99474.84;;;21.69;55.60
80410;BME280;69746;45.596;10.154;2023-05-07T12:53:29;99471.75;;;21.70;55.61
80410;BME280;69746;45.596;10.154;2023-05-07T12:55:58;99462.63;;;21.70;55.59
80410;BME280;69746;45.596;10.154;2023-05-07T12:58:28;99477.31;;;21.70;55.60